Time;durP1;ratioP1;P1;durP2;ratioP2;P2;SDS_P1;SDS_P2;PMS_P1;PMS_P2;Temp;Humidity;BMP_temperature;BMP_pressure;BME280_temperature;BME280_humidity;BME280_pressure;Samples;Min_cycle;Max_cycle;Signal;HPM_P1;HPM_P2
2022/11/11 00:02:36;;;;;;;22.08;10.90;;;;;;;;;;4917718;29;20177;-60
2022/11/11 00:05:21;;;;;;;20.58;11.18;;;;;;;;;;4917896;29;20063;-60
2022/11/11 00:08:06;;;;;;;32.03;11.18;;;;;;;;;;4917975;29;20062;-59
2022/11/11 00:10:51;;;;;;;18.27;10.48;;;;;;;;;;4917817;29;20066;-59
2022/11/11 00:13:37;;;;;;;33.85;11.30;;;;;;;;;;4917002;29;20059;-60
2022/11/11 00:16:22;;;;;;;26.95;10.85;;;;;;;;;;4917817;29;20154;-60
2022/11/11 00:25:16;;;;;;;20.38;8.60;;;;;;;;;;4917306;29;20538;-60
2022/11/11 00:28:01;;;;;;;18.50;9.35;;;;;;;;;;4917527;29;20063;-60
2022/11/11 00:30:45;;;;;;;13.50;8.52;;;;;;;;;;4918099;29;20579;-60
2022/11/11 00:33:30;;;;;;;46.38;9.55;;;;;;;;;;4917462;29;20059;-60
2022/11/11 00:36:15;;;;;;;23.73;9.90;;;;;;;;;;4916525;29;20067;-60
2022/11/11 00:39:00;;;;;;;19.63;9.25;;;;;;;;;;4917324;29;20548;-60
2022/11/11 00:41:44;;;;;;;21.88;9.50;;;;;;;;;;4917330;29;20051;-60
2022/11/11 00:44:29;;;;;;;84.32;11.77;;;;;;;;;;4917355;29;20054;-60
2022/11/11 00:53:24;;;;;;;27.02;8.70;;;;;;;;;;4917504;29;20104;-60
2022/11/11 00:56:11;;;;;;;20.77;9.27;;;;;;;;;;4918555;29;20428;-60
2022/11/11 00:58:56;;;;;;;20.98;8.40;;;;;;;;;;4917459;29;20691;-60
2022/11/11 01:01:41;;;;;;;30.23;8.70;;;;;;;;;;4915846;29;20104;-60
2022/11/11 01:04:27;;;;;;;21.35;8.45;;;;;;;;;;4916068;29;20051;-60
2022/11/11 01:07:12;;;;;;;21.83;8.93;;;;;;;;;;4917106;29;20066;-61
2022/11/11 01:09:57;;;;;;;18.20;9.05;;;;;;;;;;4915981;29;20139;-60
2022/11/11 01:12:41;;;;;;;12.20;8.75;;;;;;;;;;4916438;29;20059;-61
2022/11/11 01:15:26;;;;;;;14.32;8.82;;;;;;;;;;4916754;29;20107;-61
2022/11/11 01:18:12;;;;;;;20.10;9.23;;;;;;;;;;4916333;29;20052;-62
2022/11/11 01:21:05;;;;;;;15.52;8.40;;;;;;;;;;4916495;29;20059;-61
2022/11/11 01:23:51;;;;;;;12.85;8.68;;;;;;;;;;4916364;29;20051;-60
2022/11/11 01:26:36;;;;;;;14.00;6.53;;;;;;;;;;4916069;29;20051;-61
2022/11/11 01:29:21;;;;;;;10.02;5.90;;;;;;;;;;4916299;29;20063;-61
2022/11/11 01:32:06;;;;;;;9.55;6.45;;;;;;;;;;4916413;29;20059;-60
2022/11/11 01:34:51;;;;;;;16.95;6.53;;;;;;;;;;4916321;29;20178;-59
2022/11/11 01:37:36;;;;;;;10.90;5.45;;;;;;;;;;4916251;29;20100;-59
2022/11/11 01:40:20;;;;;;;14.07;5.95;;;;;;;;;;4916453;29;20055;-60
2022/11/11 01:43:05;;;;;;;64.13;7.80;;;;;;;;;;4915861;29;20060;-60
2022/11/11 01:45:59;;;;;;;30.25;5.65;;;;;;;;;;4916324;29;20059;-60
2022/11/11 01:51:56;;;;;;;13.73;5.45;;;;;;;;;;4916069;29;20063;-61
2022/11/11 01:54:47;;;;;;;16.02;6.05;;;;;;;;;;4915577;29;20125;-61
2022/11/11 01:57:32;;;;;;;9.50;5.72;;;;;;;;;;4916281;29;20051;-60
2022/11/11 02:00:18;;;;;;;11.38;6.10;;;;;;;;;;4916760;29;20051;-60
2022/11/11 02:03:05;;;;;;;17.63;6.38;;;;;;;;;;4915959;29;20059;-59
2022/11/11 02:05:54;;;;;;;13.38;6.45;;;;;;;;;;4916289;29;20055;-60
2022/11/11 02:08:39;;;;;;;19.30;5.53;;;;;;;;;;4915893;29;20115;-60
2022/11/11 02:14:34;;;;;;;18.40;5.35;;;;;;;;;;4915920;29;20138;-60
2022/11/11 02:17:20;;;;;;;10.70;5.45;;;;;;;;;;4915878;29;20043;-59
2022/11/11 02:20:05;;;;;;;9.35;5.75;;;;;;;;;;4915804;29;20192;-61
2022/11/11 02:22:56;;;;;;;20.02;5.40;;;;;;;;;;4915258;29;20159;-62
2022/11/11 02:25:43;;;;;;;22.48;5.80;;;;;;;;;;4915914;29;20629;-60
2022/11/11 02:28:29;;;;;;;29.20;6.30;;;;;;;;;;4914823;29;20566;-60
2022/11/11 02:31:14;;;;;;;18.92;5.53;;;;;;;;;;4915846;29;20052;-60
2022/11/11 02:33:58;;;;;;;27.65;5.70;;;;;;;;;;4915635;29;20066;-60
2022/11/11 02:36:44;;;;;;;11.27;6.10;;;;;;;;;;4916427;29;20168;-61
2022/11/11 02:39:29;;;;;;;7.80;4.68;;;;;;;;;;4918297;29;20534;-61
2022/11/11 02:42:35;;;;;;;10.68;4.97;;;;;;;;;;4919026;29;20063;-61
2022/11/11 02:45:20;;;;;;;13.13;3.88;;;;;;;;;;4919057;29;20055;-60
2022/11/11 02:48:05;;;;;;;6.45;4.10;;;;;;;;;;4920009;29;20131;-60
2022/11/11 02:50:49;;;;;;;8.00;4.07;;;;;;;;;;4920656;29;20070;-60
2022/11/11 02:53:34;;;;;;;14.38;5.10;;;;;;;;;;4918875;29;20055;-59
2022/11/11 02:57:05;;;;;;;8.02;4.65;;;;;;;;;;4918750;29;20092;-60
2022/11/11 02:59:24;;;;;;;10.27;5.03;;;;;;;;;;4918636;29;20058;-59
2022/11/11 03:02:10;;;;;;;9.02;5.20;;;;;;;;;;4917550;29;20054;-59
2022/11/11 03:04:56;;;;;;;9.20;5.30;;;;;;;;;;4918978;29;20059;-60
2022/11/11 03:07:41;;;;;;;11.70;5.50;;;;;;;;;;4918778;29;20048;-61
2022/11/11 03:10:25;;;;;;;26.30;5.40;;;;;;;;;;4918798;29;20059;-61
2022/11/11 03:13:10;;;;;;;17.50;6.20;;;;;;;;;;4918488;29;20142;-60
2022/11/11 03:15:55;;;;;;;12.63;5.18;;;;;;;;;;4918895;29;20070;-60
2022/11/11 03:18:40;;;;;;;30.00;5.13;;;;;;;;;;4918389;29;20059;-59
2022/11/11 03:21:25;;;;;;;7.00;4.72;;;;;;;;;;4918482;29;20518;-61
2022/11/11 03:27:34;;;;;;;14.95;5.50;;;;;;;;;;4918625;29;20059;-60
2022/11/11 03:30:19;;;;;;;9.60;5.38;;;;;;;;;;4918511;29;20055;-61
2022/11/11 03:33:04;;;;;;;20.67;5.65;;;;;;;;;;4918248;29;20059;-61
2022/11/11 03:35:48;;;;;;;9.50;5.00;;;;;;;;;;4918754;29;20066;-61
2022/11/11 03:38:33;;;;;;;18.35;5.85;;;;;;;;;;4918380;29;20058;-62
2022/11/11 03:41:18;;;;;;;15.93;5.13;;;;;;;;;;4918145;29;20059;-62
2022/11/11 03:44:03;;;;;;;22.75;5.30;;;;;;;;;;4918310;29;20062;-62
2022/11/11 03:46:48;;;;;;;24.75;5.28;;;;;;;;;;4918359;29;20107;-63
2022/11/11 03:49:33;;;;;;;14.10;4.47;;;;;;;;;;4917438;29;20059;-63
2022/11/11 03:52:17;;;;;;;10.38;4.47;;;;;;;;;;4917850;29;20134;-62
2022/11/11 03:55:02;;;;;;;16.23;4.15;;;;;;;;;;4918013;29;20421;-62
2022/11/11 03:57:47;;;;;;;9.40;4.43;;;;;;;;;;4917621;29;20070;-62
2022/11/11 04:00:33;;;;;;;9.10;4.80;;;;;;;;;;4917797;29;20063;-62
2022/11/11 04:12:30;;;;;;;4.72;3.60;;;;;;;;;;4917529;29;20119;-60
2022/11/11 04:21:42;;;;;;;7.65;4.20;;;;;;;;;;4917506;29;20536;-61
2022/11/11 04:21:42;;;;;;;8.48;4.13;;;;;;;;;;4917371;29;20119;-61
2022/11/11 04:27:31;;;;;;;7.95;4.28;;;;;;;;;;4917714;29;20123;-60
2022/11/11 04:30:16;;;;;;;8.57;3.72;;;;;;;;;;4917486;29;20051;-61
2022/11/11 04:33:01;;;;;;;9.65;4.22;;;;;;;;;;4917385;29;20087;-61
2022/11/11 04:35:49;;;;;;;12.55;4.25;;;;;;;;;;4917530;29;20059;-61
2022/11/11 04:41:38;;;;;;;10.77;4.40;;;;;;;;;;4916906;29;20051;-61
2022/11/11 04:47:53;;;;;;;8.23;4.13;;;;;;;;;;4917005;29;20115;-61
2022/11/11 04:50:40;;;;;;;16.48;4.78;;;;;;;;;;4917208;29;20066;-60
2022/11/11 04:53:25;;;;;;;9.50;5.63;;;;;;;;;;4916618;29;20153;-60
2022/11/11 04:59:19;;;;;;;10.30;4.88;;;;;;;;;;4916069;29;20420;-61
2022/11/11 05:05:07;;;;;;;15.05;4.47;;;;;;;;;;4916815;29;20508;-62
2022/11/11 05:10:56;;;;;;;7.68;3.20;;;;;;;;;;4916858;29;20059;-62
2022/11/11 05:22:53;;;;;;;10.80;3.08;;;;;;;;;;4897044;29;20079;-61
2022/11/11 05:25:38;;;;;;;28.17;4.20;;;;;;;;;;4897765;29;20528;-61
2022/11/11 05:28:23;;;;;;;5.10;3.05;;;;;;;;;;4897441;29;20129;-61
2022/11/11 05:31:08;;;;;;;22.02;3.53;;;;;;;;;;4896598;29;20063;-60
2022/11/11 05:33:52;;;;;;;4.78;2.50;;;;;;;;;;4897036;29;20063;-63
2022/11/11 05:36:37;;;;;;;10.02;4.53;;;;;;;;;;4897311;29;20063;-62
2022/11/11 05:39:22;;;;;;;11.55;2.90;;;;;;;;;;4896340;29;20059;-62
2022/11/11 05:42:07;;;;;;;4.20;2.40;;;;;;;;;;4896928;29;20060;-63
2022/11/11 05:44:52;;;;;;;2.58;2.17;;;;;;;;;;4896875;29;20051;-61
2022/11/11 05:47:37;;;;;;;2.78;2.22;;;;;;;;;;4897013;29;20138;-61
2022/11/11 05:50:22;;;;;;;3.22;2.58;;;;;;;;;;4897373;29;20178;-61
2022/11/11 05:53:07;;;;;;;3.75;2.65;;;;;;;;;;4896463;29;20148;-61
2022/11/11 05:55:52;;;;;;;2.42;2.10;;;;;;;;;;4897367;29;20406;-63
2022/11/11 05:58:37;;;;;;;2.30;2.10;;;;;;;;;;4897069;29;20056;-62
2022/11/11 06:01:22;;;;;;;2.83;2.13;;;;;;;;;;4897001;29;20112;-62
2022/11/11 06:04:08;;;;;;;2.63;1.90;;;;;;;;;;4897760;29;20099;-62
2022/11/11 06:06:59;;;;;;;6.22;2.08;;;;;;;;;;4897584;29;20062;-62
2022/11/11 06:09:44;;;;;;;9.75;2.13;;;;;;;;;;4897440;29;20063;-62
2022/11/11 06:13:00;;;;;;;3.63;2.10;;;;;;;;;;4898844;29;20105;-62
2022/11/11 06:15:34;;;;;;;8.60;5.88;;;;;;;;;;4900944;29;20143;-61
2022/11/11 06:18:19;;;;;;;4.55;3.22;;;;;;;;;;4900023;29;20466;-62
2022/11/11 06:21:05;;;;;;;3.33;2.55;;;;;;;;;;4899996;29;20060;-62
2022/11/11 06:23:50;;;;;;;3.78;2.22;;;;;;;;;;4900513;29;20056;-63
2022/11/11 06:26:35;;;;;;;6.72;3.78;;;;;;;;;;4899834;29;20180;-62
2022/11/11 06:29:19;;;;;;;4.28;2.97;;;;;;;;;;4900719;29;20120;-62
2022/11/11 06:32:04;;;;;;;3.80;2.80;;;;;;;;;;4900135;29;20112;-60
2022/11/11 06:34:49;;;;;;;4.65;2.67;;;;;;;;;;4900855;29;20058;-60
2022/11/11 06:37:35;;;;;;;4.47;2.50;;;;;;;;;;4900538;29;20059;-60
2022/11/11 06:40:23;;;;;;;2.83;2.50;;;;;;;;;;4900551;29;20188;-61
2022/11/11 06:43:08;;;;;;;2.40;2.10;;;;;;;;;;4900192;29;20064;-60
2022/11/11 06:45:54;;;;;;;3.30;2.25;;;;;;;;;;4900621;29;20063;-60
2022/11/11 06:48:41;;;;;;;2.58;2.17;;;;;;;;;;4900617;29;20120;-60
2022/11/11 06:51:26;;;;;;;2.92;2.28;;;;;;;;;;4899464;29;20108;-60
2022/11/11 06:54:11;;;;;;;3.78;2.55;;;;;;;;;;4900737;29;20059;-60
2022/11/11 06:56:56;;;;;;;4.40;3.10;;;;;;;;;;4900093;29;20108;-62
2022/11/11 06:59:41;;;;;;;3.20;2.55;;;;;;;;;;4899229;29;20056;-60
2022/11/11 07:02:26;;;;;;;5.97;3.88;;;;;;;;;;4899856;29;20410;-61
2022/11/11 07:05:11;;;;;;;5.88;3.75;;;;;;;;;;4900383;29;20071;-60
2022/11/11 07:08:00;;;;;;;4.40;3.60;;;;;;;;;;4899019;29;20071;-61
2022/11/11 07:10:46;;;;;;;5.60;3.25;;;;;;;;;;4900139;29;20426;-61
2022/11/11 07:13:31;;;;;;;6.15;3.83;;;;;;;;;;4899286;29;20531;-61
2022/11/11 07:16:15;;;;;;;6.68;4.45;;;;;;;;;;4900117;29;20060;-61
2022/11/11 07:19:00;;;;;;;6.97;4.57;;;;;;;;;;4899996;29;20059;-61
2022/11/11 07:21:45;;;;;;;6.00;4.22;;;;;;;;;;4899367;29;20528;-61
2022/11/11 07:24:31;;;;;;;6.88;3.75;;;;;;;;;;4899422;29;20080;-62
2022/11/11 07:27:16;;;;;;;6.13;3.88;;;;;;;;;;4899959;29;20135;-62
2022/11/11 07:30:01;;;;;;;6.10;3.50;;;;;;;;;;4899037;29;20084;-62
2022/11/11 07:32:46;;;;;;;6.93;3.90;;;;;;;;;;4899242;29;20184;-61
2022/11/11 07:35:31;;;;;;;7.03;4.25;;;;;;;;;;4899713;29;20060;-61
2022/11/11 07:38:16;;;;;;;9.48;4.90;;;;;;;;;;4900721;29;20426;-60
2022/11/11 07:41:01;;;;;;;7.25;4.80;;;;;;;;;;4899720;29;20519;-61
2022/11/11 07:43:46;;;;;;;7.97;4.68;;;;;;;;;;4899367;29;20075;-60
2022/11/11 07:46:31;;;;;;;6.53;4.53;;;;;;;;;;4899475;29;20527;-61
2022/11/11 07:49:16;;;;;;;9.32;4.72;;;;;;;;;;4899551;29;20181;-60
2022/11/11 07:52:01;;;;;;;8.68;5.10;;;;;;;;;;4897597;29;20063;-61
2022/11/11 07:54:46;;;;;;;6.53;4.70;;;;;;;;;;4900364;29;20072;-62
2022/11/11 07:57:31;;;;;;;8.65;4.78;;;;;;;;;;4901507;29;20063;-62
2022/11/11 08:00:16;;;;;;;5.60;3.95;;;;;;;;;;4899579;29;20075;-61
2022/11/11 08:03:01;;;;;;;7.00;4.53;;;;;;;;;;4898873;29;20416;-60
2022/11/11 08:05:54;;;;;;;9.73;5.45;;;;;;;;;;4898669;29;20404;-60
2022/11/11 08:08:39;;;;;;;6.32;4.45;;;;;;;;;;4899225;29;20063;-60
2022/11/11 08:14:27;;;;;;;8.80;4.70;;;;;;;;;;4898765;29;20204;-59
2022/11/11 08:17:12;;;;;;;9.45;5.22;;;;;;;;;;4898577;29;20144;-59
2022/11/11 08:19:57;;;;;;;11.77;6.32;;;;;;;;;;4899032;29;20056;-59
2022/11/11 08:22:42;;;;;;;7.18;5.00;;;;;;;;;;4899730;29;20051;-60
2022/11/11 08:25:47;;;;;;;;;;;;;;;;;;4900070;29;20059;-61
2022/11/11 08:28:33;;;;;;;9.57;5.20;;;;;;;;;;4899754;29;19939;-61
2022/11/11 08:31:19;;;;;;;11.20;5.75;;;;;;;;;;4898847;29;20099;-61
2022/11/11 08:34:04;;;;;;;10.43;5.75;;;;;;;;;;4898547;29;20056;-61
2022/11/11 08:36:49;;;;;;;8.75;6.25;;;;;;;;;;4899962;29;20585;-61
2022/11/11 08:39:34;;;;;;;12.77;6.47;;;;;;;;;;4899942;29;20056;-61
2022/11/11 08:42:19;;;;;;;10.48;5.65;;;;;;;;;;4899459;29;20058;-61
2022/11/11 08:45:05;;;;;;;11.80;6.00;;;;;;;;;;4899827;29;20107;-61
2022/11/11 08:47:50;;;;;;;8.55;5.82;;;;;;;;;;4899261;29;20051;-61
2022/11/11 08:50:37;;;;;;;8.02;5.70;;;;;;;;;;4900015;29;20067;-61
2022/11/11 08:53:22;;;;;;;11.70;6.50;;;;;;;;;;4899088;29;20059;-60
2022/11/11 08:56:07;;;;;;;11.45;7.00;;;;;;;;;;4899709;29;20417;-61
2022/11/11 08:58:53;;;;;;;11.02;7.00;;;;;;;;;;4898724;29;20055;-60
2022/11/11 09:01:37;;;;;;;11.82;6.68;;;;;;;;;;4898933;29;20062;-61
2022/11/11 09:04:23;;;;;;;8.95;5.60;;;;;;;;;;4898622;29;20461;-61
2022/11/11 09:07:28;;;;;;;8.68;5.43;;;;;;;;;;4898498;29;20118;-62
2022/11/11 09:10:13;;;;;;;13.60;7.28;;;;;;;;;;4897456;29;20535;-60
2022/11/11 09:12:58;;;;;;;13.02;6.13;;;;;;;;;;4896536;29;20064;-61
2022/11/11 09:15:43;;;;;;;16.17;7.97;;;;;;;;;;4897317;29;20394;-62
2022/11/11 09:18:30;;;;;;;8.50;5.75;;;;;;;;;;4897218;29;20060;-61
2022/11/11 09:21:15;;;;;;;12.57;7.60;;;;;;;;;;4896973;29;20169;-62
2022/11/11 09:24:00;;;;;;;9.23;6.15;;;;;;;;;;4896262;29;20112;-61
2022/11/11 09:26:48;;;;;;;11.57;6.03;;;;;;;;;;4897741;29;20058;-61
2022/11/11 09:29:33;;;;;;;11.23;6.28;;;;;;;;;;4897958;29;20059;-62
2022/11/11 09:32:18;;;;;;;12.95;7.05;;;;;;;;;;4896961;29;20646;-62
2022/11/11 09:35:04;;;;;;;9.65;5.70;;;;;;;;;;4898273;29;20060;-61
2022/11/11 09:37:56;;;;;;;8.35;5.65;;;;;;;;;;4896864;29;20055;-62
2022/11/11 09:41:01;;;;;;;10.40;6.20;;;;;;;;;;4897265;29;20168;-62
2022/11/11 09:43:45;;;;;;;;;;;;;;;;;;4896512;29;20136;-62
2022/11/11 09:46:36;;;;;;;9.77;6.93;;;;;;;;;;4895974;29;19931;-62
2022/11/11 09:49:24;;;;;;;6.00;4.70;;;;;;;;;;4897430;29;20062;-62
2022/11/11 09:52:13;;;;;;;6.97;5.40;;;;;;;;;;4897256;29;20063;-62
2022/11/11 09:55:01;;;;;;;9.80;6.63;;;;;;;;;;4897523;29;20165;-62
2022/11/11 09:57:52;;;;;;;10.85;6.05;;;;;;;;;;4897325;29;20061;-62
2022/11/11 10:00:40;;;;;;;8.15;6.20;;;;;;;;;;4898216;29;20108;-61
2022/11/11 10:03:29;;;;;;;7.55;5.80;;;;;;;;;;4898201;29;20056;-61
2022/11/11 10:06:17;;;;;;;7.47;6.07;;;;;;;;;;4898096;29;20056;-61
2022/11/11 10:09:16;;;;;;;7.63;6.20;;;;;;;;;;4898184;29;20148;-61
2022/11/11 10:12:01;;;;;;;12.53;7.30;;;;;;;;;;4896744;29;20052;-62
2022/11/11 10:14:48;;;;;;;10.75;9.07;;;;;;;;;;4897553;29;20146;-62
2022/11/11 10:17:52;;;;;;;13.27;8.70;;;;;;;;;;4896592;29;20063;-62
2022/11/11 10:20:39;;;;;;;11.90;8.52;;;;;;;;;;4896372;29;20052;-62
2022/11/11 10:23:29;;;;;;;10.52;7.38;;;;;;;;;;4896522;29;20100;-62
2022/11/11 10:26:14;;;;;;;8.60;6.68;;;;;;;;;;4896388;29;20515;-62
2022/11/11 10:29:00;;;;;;;10.60;7.70;;;;;;;;;;4897739;29;20060;-61
2022/11/11 10:31:58;;;;;;;13.63;7.43;;;;;;;;;;4896666;29;20466;-60
2022/11/11 10:34:42;;;;;;;9.30;6.90;;;;;;;;;;4896871;29;20160;-60
2022/11/11 10:37:35;;;;;;;13.00;7.18;;;;;;;;;;4895969;29;20055;-61
2022/11/11 10:40:36;;;;;;;10.20;7.13;;;;;;;;;;4896950;29;20184;-60
2022/11/11 10:43:25;;;;;;;9.88;7.20;;;;;;;;;;4896568;29;20052;-61
2022/11/11 10:46:15;;;;;;;9.57;7.35;;;;;;;;;;4896963;29;20565;-61
2022/11/11 10:49:00;;;;;;;8.38;6.97;;;;;;;;;;4896969;29;20055;-61
2022/11/11 10:51:48;;;;;;;7.13;6.40;;;;;;;;;;4896151;29;20140;-61
2022/11/11 10:54:37;;;;;;;10.00;6.88;;;;;;;;;;4896719;29;20580;-61
2022/11/11 10:57:32;;;;;;;10.50;7.07;;;;;;;;;;4898274;29;20127;-61
2022/11/11 11:00:17;;;;;;;9.13;6.53;;;;;;;;;;4900095;29;20184;-61
2022/11/11 11:03:05;;;;;;;10.38;6.53;;;;;;;;;;4899664;29;20055;-61
2022/11/11 11:05:50;;;;;;;8.90;6.40;;;;;;;;;;4899165;29;20051;-61
2022/11/11 11:08:39;;;;;;;10.60;6.13;;;;;;;;;;4900707;29;20193;-61
2022/11/11 11:11:28;;;;;;;8.20;6.68;;;;;;;;;;4899803;29;20068;-61
2022/11/11 11:14:22;;;;;;;9.90;6.40;;;;;;;;;;4900640;29;20074;-61
2022/11/11 11:17:20;;;;;;;7.40;5.90;;;;;;;;;;4900202;29;20059;-61
2022/11/11 11:20:07;;;;;;;8.77;6.10;;;;;;;;;;4899760;29;20417;-61
2022/11/11 11:22:56;;;;;;;7.28;5.57;;;;;;;;;;4899822;29;20465;-61
2022/11/11 11:25:56;;;;;;;8.75;6.70;;;;;;;;;;4900079;29;20100;-61
2022/11/11 11:28:57;;;;;;;10.20;6.38;;;;;;;;;;4900019;29;20071;-61
2022/11/11 11:31:43;;;;;;;7.50;6.65;;;;;;;;;;4898527;29;20539;-61
2022/11/11 11:34:42;;;;;;;9.02;5.57;;;;;;;;;;4899065;29;20532;-61
2022/11/11 11:37:27;;;;;;;8.20;5.60;;;;;;;;;;4899899;29;20063;-62
2022/11/11 11:40:13;;;;;;;7.75;6.32;;;;;;;;;;4899843;29;20060;-61
2022/11/11 11:42:58;;;;;;;8.73;5.55;;;;;;;;;;4899259;29;20161;-61
2022/11/11 11:45:52;;;;;;;6.60;5.10;;;;;;;;;;4899672;29;20185;-61
2022/11/11 11:48:49;;;;;;;7.90;5.63;;;;;;;;;;4900134;29;20064;-62
2022/11/11 11:51:51;;;;;;;4.80;4.30;;;;;;;;;;4899378;29;20059;-62
2022/11/11 11:54:55;;;;;;;6.15;4.75;;;;;;;;;;4899702;29;20055;-62
2022/11/11 11:57:46;;;;;;;5.78;4.05;;;;;;;;;;4899830;29;20052;-62
2022/11/11 12:00:36;;;;;;;8.40;5.03;;;;;;;;;;4899603;29;20059;-62
2022/11/11 12:03:21;;;;;;;4.38;3.70;;;;;;;;;;4898418;29;20063;-62
2022/11/11 12:06:13;;;;;;;4.45;3.38;;;;;;;;;;4899119;29;20130;-62
2022/11/11 12:09:16;;;;;;;3.90;3.47;;;;;;;;;;4898446;29;20051;-62
2022/11/11 12:12:20;;;;;;;3.85;3.20;;;;;;;;;;4898304;29;20055;-62
2022/11/11 12:15:18;;;;;;;4.00;3.22;;;;;;;;;;4898915;29;20055;-61
2022/11/11 12:18:30;;;;;;;4.45;3.20;;;;;;;;;;4898670;29;20149;-59
2022/11/11 12:21:16;;;;;;;7.65;3.40;;;;;;;;;;4898519;29;20413;-60
2022/11/11 12:24:18;;;;;;;8.23;3.88;;;;;;;;;;4898417;29;20092;-60
2022/11/11 12:27:15;;;;;;;5.32;3.67;;;;;;;;;;4898460;29;20463;-61
2022/11/11 12:30:10;;;;;;;4.72;4.32;;;;;;;;;;4898487;29;20063;-61
2022/11/11 12:33:13;;;;;;;13.93;8.77;;;;;;;;;;4897670;29;20191;-61
2022/11/11 12:36:07;;;;;;;7.57;5.00;;;;;;;;;;4898708;29;20063;-60
2022/11/11 12:39:21;;;;;;;5.25;4.72;;;;;;;;;;4898477;29;20136;-61
2022/11/11 12:42:29;;;;;;;5.28;4.38;;;;;;;;;;4897725;29;20055;-60
2022/11/11 12:45:20;;;;;;;4.90;4.28;;;;;;;;;;4898807;29;20584;-60
2022/11/11 12:48:31;;;;;;;5.75;3.97;;;;;;;;;;4898786;29;20413;-61
2022/11/11 12:51:35;;;;;;;4.68;4.10;;;;;;;;;;4884793;29;20131;-61
2022/11/11 12:54:39;;;;;;;4.80;4.00;;;;;;;;;;4898558;29;20124;-61
2022/11/11 12:57:32;;;;;;;6.28;4.15;;;;;;;;;;4898158;29;20047;-61
2022/11/11 13:00:19;;;;;;;6.45;5.00;;;;;;;;;;4898010;29;20410;-61
2022/11/11 13:03:04;;;;;;;5.30;4.80;;;;;;;;;;4897422;29;20060;-61
2022/11/11 13:06:08;;;;;;;11.00;5.30;;;;;;;;;;4898200;29;20060;-61
2022/11/11 13:09:11;;;;;;;4.38;3.97;;;;;;;;;;4897972;29;20162;-61
2022/11/11 13:12:12;;;;;;;6.43;4.80;;;;;;;;;;4897246;29;20429;-62
2022/11/11 13:15:14;;;;;;;5.60;4.45;;;;;;;;;;4897783;29;20052;-62
2022/11/11 13:18:00;;;;;;;6.30;4.65;;;;;;;;;;4897684;29;20520;-62
2022/11/11 13:20:51;;;;;;;6.43;4.13;;;;;;;;;;4896829;29;20437;-62
2022/11/11 13:23:36;;;;;;;6.93;4.32;;;;;;;;;;4896648;29;20047;-62
2022/11/11 13:26:26;;;;;;;8.70;5.15;;;;;;;;;;4897682;29;20071;-62
2022/11/11 13:29:30;;;;;;;6.18;4.80;;;;;;;;;;4897558;29;20122;-62
2022/11/11 13:32:17;;;;;;;15.23;6.65;;;;;;;;;;4897155;29;20584;-62
2022/11/11 13:35:02;;;;;;;18.48;8.30;;;;;;;;;;4897491;29;20068;-62
2022/11/11 13:37:47;;;;;;;15.77;9.15;;;;;;;;;;4897318;29;20585;-63
2022/11/11 13:40:38;;;;;;;18.90;10.23;;;;;;;;;;4897229;29;20128;-60
2022/11/11 13:43:26;;;;;;;28.23;10.63;;;;;;;;;;4896807;29;20055;-62
2022/11/11 13:46:29;;;;;;;21.25;10.75;;;;;;;;;;4897282;29;20067;-61
2022/11/11 13:49:19;;;;;;;19.92;10.43;;;;;;;;;;4897397;29;20060;-61
2022/11/11 13:52:17;;;;;;;23.98;10.93;;;;;;;;;;4897015;29;20108;-61
2022/11/11 13:55:07;;;;;;;17.75;11.05;;;;;;;;;;4897565;29;20059;-62
2022/11/11 13:57:53;;;;;;;25.77;12.15;;;;;;;;;;4897756;29;20060;-62
2022/11/11 14:00:38;;;;;;;23.90;12.77;;;;;;;;;;4897278;29;20076;-62
2022/11/11 14:03:23;;;;;;;25.27;12.07;;;;;;;;;;4896587;29;20072;-62
2022/11/11 14:06:14;;;;;;;26.05;13.15;;;;;;;;;;4897334;29;20058;-61
2022/11/11 14:09:00;;;;;;;19.88;12.15;;;;;;;;;;4897295;29;20056;-61
2022/11/11 14:11:45;;;;;;;24.65;12.73;;;;;;;;;;4895545;29;20466;-62
2022/11/11 14:14:30;;;;;;;22.67;12.25;;;;;;;;;;4895947;29;20642;-62
2022/11/11 14:17:16;;;;;;;21.33;12.15;;;;;;;;;;4897645;29;20063;-62
2022/11/11 14:20:20;;;;;;;27.15;13.77;;;;;;;;;;4896982;29;20056;-62
2022/11/11 14:23:17;;;;;;;29.10;14.30;;;;;;;;;;4896602;29;20520;-61
2022/11/11 14:26:05;;;;;;;27.05;13.80;;;;;;;;;;4896911;29;20508;-60
2022/11/11 14:28:54;;;;;;;21.95;13.00;;;;;;;;;;4897078;29;20139;-61
2022/11/11 14:31:45;;;;;;;21.58;12.85;;;;;;;;;;4896677;29;20063;-61
2022/11/11 14:34:42;;;;;;;42.05;21.10;;;;;;;;;;4899532;29;20533;-61
2022/11/11 14:37:33;;;;;;;29.33;15.02;;;;;;;;;;4900634;29;20052;-61
2022/11/11 14:40:26;;;;;;;28.92;14.32;;;;;;;;;;4900482;29;20132;-61
2022/11/11 14:43:43;;;;;;;28.58;14.90;;;;;;;;;;4899863;29;20109;-61
2022/11/11 14:46:28;;;;;;;26.67;15.55;;;;;;;;;;4868024;29;20055;-61
2022/11/11 14:49:33;;;;;;;27.60;16.20;;;;;;;;;;4900659;29;20075;-61
2022/11/11 14:52:23;;;;;;;33.35;17.63;;;;;;;;;;4900103;29;20544;-61
2022/11/11 14:55:14;;;;;;;31.48;15.55;;;;;;;;;;4900196;29;20063;-61
2022/11/11 14:58:08;;;;;;;36.55;19.25;;;;;;;;;;4900404;29;20112;-61
2022/11/11 15:00:56;;;;;;;35.55;18.77;;;;;;;;;;4900182;29;20065;-61
2022/11/11 15:03:49;;;;;;;34.75;18.80;;;;;;;;;;4899611;29;20139;-61
2022/11/11 15:06:38;;;;;;;35.83;17.88;;;;;;;;;;4900221;29;20533;-61
2022/11/11 15:09:29;;;;;;;26.60;14.98;;;;;;;;;;4900202;29;20143;-61
2022/11/11 15:12:22;;;;;;;29.77;17.35;;;;;;;;;;4899344;29;20536;-61
2022/11/11 15:15:18;;;;;;;32.58;19.90;;;;;;;;;;4899972;29;20051;-61
2022/11/11 15:18:03;;;;;;;33.95;17.67;;;;;;;;;;4900160;29;20052;-60
2022/11/11 15:21:11;;;;;;;33.17;18.38;;;;;;;;;;4899771;29;20418;-61
2022/11/11 15:24:02;;;;;;;31.25;16.73;;;;;;;;;;4898678;29;20055;-60
2022/11/11 15:26:56;;;;;;;40.75;20.40;;;;;;;;;;4900182;29;20057;-61
2022/11/11 15:29:50;;;;;;;38.40;20.17;;;;;;;;;;4899841;29;20052;-61
2022/11/11 15:33:04;;;;;;;39.42;21.05;;;;;;;;;;4898997;29;20051;-61
2022/11/11 15:36:00;;;;;;;41.78;20.73;;;;;;;;;;4880409;29;20059;-61
2022/11/11 15:38:50;;;;;;;36.63;19.48;;;;;;;;;;4899568;29;20537;-61
2022/11/11 15:41:36;;;;;;;46.83;23.35;;;;;;;;;;4899041;29;20420;-60
2022/11/11 15:44:24;;;;;;;60.30;25.67;;;;;;;;;;4898492;29;20051;-61
2022/11/11 15:47:13;;;;;;;37.03;19.95;;;;;;;;;;4899327;29;20104;-62
2022/11/11 15:49:58;;;;;;;51.47;22.45;;;;;;;;;;4899508;29;20044;-62
2022/11/11 15:52:43;;;;;;;59.20;24.25;;;;;;;;;;4898714;29;20071;-61
2022/11/11 15:55:30;;;;;;;41.42;21.10;;;;;;;;;;4899006;29;20122;-62
2022/11/11 15:58:25;;;;;;;54.80;19.23;;;;;;;;;;4899539;29;20139;-61
2022/11/11 16:01:11;;;;;;;64.40;19.95;;;;;;;;;;4898748;29;20063;-61
2022/11/11 16:03:56;;;;;;;52.55;17.90;;;;;;;;;;4897307;29;20055;-61
2022/11/11 16:06:42;;;;;;;62.72;18.88;;;;;;;;;;4898874;29;20112;-62
2022/11/11 16:09:28;;;;;;;65.32;20.25;;;;;;;;;;4898812;29;20438;-62
2022/11/11 16:12:16;;;;;;;50.63;18.73;;;;;;;;;;4898068;29;20055;-61
2022/11/11 16:15:03;;;;;;;50.13;18.42;;;;;;;;;;4899047;29;20176;-61
2022/11/11 16:17:49;;;;;;;38.75;17.40;;;;;;;;;;4898815;29;20063;-61
2022/11/11 16:20:37;;;;;;;65.93;18.88;;;;;;;;;;4898625;29;20536;-61
2022/11/11 16:23:23;;;;;;;33.10;15.95;;;;;;;;;;4898141;29;20410;-61
2022/11/11 16:26:09;;;;;;;37.97;16.33;;;;;;;;;;4898695;29;20059;-61
2022/11/11 16:28:55;;;;;;;71.93;17.63;;;;;;;;;;4898640;29;20131;-61
2022/11/11 16:31:41;;;;;;;45.42;17.63;;;;;;;;;;4898345;29;20544;-61
2022/11/11 16:34:29;;;;;;;42.60;16.75;;;;;;;;;;4898672;29;20060;-61
2022/11/11 16:37:18;;;;;;;34.47;14.80;;;;;;;;;;4898412;29;20540;-61
2022/11/11 16:40:21;;;;;;;26.70;16.65;;;;;;;;;;4898191;29;20067;-61
2022/11/11 16:43:14;;;;;;;40.22;13.73;;;;;;;;;;4897722;29;20165;-61
2022/11/11 16:46:06;;;;;;;31.17;14.60;;;;;;;;;;4898293;29;20051;-61
2022/11/11 16:48:52;;;;;;;54.70;15.93;;;;;;;;;;4898196;29;20058;-61
2022/11/11 16:51:37;;;;;;;26.02;14.20;;;;;;;;;;4897757;29;20185;-61
2022/11/11 16:54:26;;;;;;;31.23;14.73;;;;;;;;;;4898356;29;20052;-60
2022/11/11 16:57:15;;;;;;;33.97;14.02;;;;;;;;;;4898374;29;20523;-62
2022/11/11 17:00:02;;;;;;;39.50;13.13;;;;;;;;;;4897791;29;20539;-60
2022/11/11 17:02:48;;;;;;;49.53;12.57;;;;;;;;;;4898422;29;20442;-60
2022/11/11 17:05:46;;;;;;;19.83;11.07;;;;;;;;;;4897939;29;20140;-60
2022/11/11 17:08:39;;;;;;;19.30;11.95;;;;;;;;;;4897587;29;20123;-60
2022/11/11 17:11:39;;;;;;;19.25;10.43;;;;;;;;;;4897817;29;20196;-61
2022/11/11 17:14:25;;;;;;;22.20;11.48;;;;;;;;;;4898163;29;20051;-60
2022/11/11 17:17:10;;;;;;;22.88;11.57;;;;;;;;;;4898057;29;20075;-60
2022/11/11 17:19:56;;;;;;;34.90;12.88;;;;;;;;;;4898036;29;20139;-61
2022/11/11 17:22:49;;;;;;;22.45;11.75;;;;;;;;;;4897124;29;20429;-60
2022/11/11 17:25:34;;;;;;;62.47;12.38;;;;;;;;;;4897847;29;20414;-60
2022/11/11 17:28:19;;;;;;;55.47;12.82;;;;;;;;;;4896878;29;20515;-61
2022/11/11 17:31:05;;;;;;;29.80;12.50;;;;;;;;;;4898193;29;20504;-61
2022/11/11 17:33:50;;;;;;;27.63;12.25;;;;;;;;;;4895847;29;20084;-61
2022/11/11 17:36:34;;;;;;;24.83;12.57;;;;;;;;;;4896302;29;20597;-61
2022/11/11 17:39:19;;;;;;;29.98;12.10;;;;;;;;;;4897530;29;20354;-61
2022/11/11 17:42:04;;;;;;;41.22;12.98;;;;;;;;;;4896509;29;20108;-60
2022/11/11 17:44:49;;;;;;;33.38;12.23;;;;;;;;;;4897501;29;20063;-60
2022/11/11 17:47:34;;;;;;;34.60;12.52;;;;;;;;;;4897512;29;20537;-61